sensor_id;sensor_type;location;lat;lon;timestamp;temperature;humidity
19920;DHT22;10122;50.074;19.920;2022-08-21T00:01:22;21.70;99.90
19920;DHT22;10122;50.074;19.920;2022-08-21T00:03:49;21.80;99.90
19920;DHT22;10122;50.074;19.920;2022-08-21T00:06:15;21.80;99.90
19920;DHT22;10122;50.074;19.920;2022-08-21T00:08:41;21.70;99.90
19920;DHT22;10122;50.074;19.920;2022-08-21T00:11:08;21.70;99.90
19920;DHT22;10122;50.074;19.920;2022-08-21T00:13:34;21.70;99.90
19920;DHT22;10122;50.074;19.920;2022-08-21T00:16:02;21.70;99.90
19920;DHT22;10122;50.074;19.920;2022-08-21T00:18:27;21.70;99.90
19920;DHT22;10122;50.074;19.920;2022-08-21T00:20:53;21.60;99.90
19920;DHT22;10122;50.074;19.920;2022-08-21T00:23:19;21.60;99.90
19920;DHT22;10122;50.074;19.920;2022-08-21T00:25:45;21.60;99.90
19920;DHT22;10122;50.074;19.920;2022-08-21T00:28:11;21.60;99.90
19920;DHT22;10122;50.074;19.920;2022-08-21T00:30:38;21.60;99.90
19920;DHT22;10122;50.074;19.920;2022-08-21T00:33:04;21.60;99.90
19920;DHT22;10122;50.074;19.920;2022-08-21T00:35:34;21.60;99.90
19920;DHT22;10122;50.074;19.920;2022-08-21T00:38:00;21.60;99.90
19920;DHT22;10122;50.074;19.920;2022-08-21T00:40:32;21.60;99.90
19920;DHT22;10122;50.074;19.920;2022-08-21T00:42:58;21.60;99.90
19920;DHT22;10122;50.074;19.920;2022-08-21T00:45:24;21.60;99.90
19920;DHT22;10122;50.074;19.920;2022-08-21T00:47:51;21.60;99.90
19920;DHT22;10122;50.074;19.920;2022-08-21T00:50:17;21.60;99.90
19920;DHT22;10122;50.074;19.920;2022-08-21T00:52:44;21.60;99.90
19920;DHT22;10122;50.074;19.920;2022-08-21T00:55:11;21.60;99.90
19920;DHT22;10122;50.074;19.920;2022-08-21T00:57:47;21.50;99.90
19920;DHT22;10122;50.074;19.920;2022-08-21T01:00:18;21.50;99.90
19920;DHT22;10122;50.074;19.920;2022-08-21T01:02:45;21.50;99.90
19920;DHT22;10122;50.074;19.920;2022-08-21T01:05:12;21.50;99.90
19920;DHT22;10122;50.074;19.920;2022-08-21T01:07:38;21.50;99.90
19920;DHT22;10122;50.074;19.920;2022-08-21T01:10:06;21.40;99.90
19920;DHT22;10122;50.074;19.920;2022-08-21T01:12:32;21.40;99.90
19920;DHT22;10122;50.074;19.920;2022-08-21T01:14:59;21.40;99.90
19920;DHT22;10122;50.074;19.920;2022-08-21T01:17:26;21.30;99.90
19920;DHT22;10122;50.074;19.920;2022-08-21T01:19:57;21.40;99.90
19920;DHT22;10122;50.074;19.920;2022-08-21T01:22:22;21.30;99.90
19920;DHT22;10122;50.074;19.920;2022-08-21T01:24:48;21.30;99.90
19920;DHT22;10122;50.074;19.920;2022-08-21T01:27:15;21.30;99.90
19920;DHT22;10122;50.074;19.920;2022-08-21T01:29:59;21.30;99.90
19920;DHT22;10122;50.074;19.920;2022-08-21T01:32:25;21.30;99.90
19920;DHT22;10122;50.074;19.920;2022-08-21T01:34:51;21.20;99.90
19920;DHT22;10122;50.074;19.920;2022-08-21T01:37:19;21.20;99.90
19920;DHT22;10122;50.074;19.920;2022-08-21T01:39:46;21.20;99.90
19920;DHT22;10122;50.074;19.920;2022-08-21T01:42:12;21.20;99.90
19920;DHT22;10122;50.074;19.920;2022-08-21T01:44:37;21.10;99.90
19920;DHT22;10122;50.074;19.920;2022-08-21T01:47:06;21.10;99.90
19920;DHT22;10122;50.074;19.920;2022-08-21T01:49:33;21.10;99.90
19920;DHT22;10122;50.074;19.920;2022-08-21T01:51:59;21.10;99.90
19920;DHT22;10122;50.074;19.920;2022-08-21T01:54:25;21.10;99.90
19920;DHT22;10122;50.074;19.920;2022-08-21T01:56:52;21.10;99.90
19920;DHT22;10122;50.074;19.920;2022-08-21T01:59:18;21.10;99.90
19920;DHT22;10122;50.074;19.920;2022-08-21T02:01:44;21.10;99.90
19920;DHT22;10122;50.074;19.920;2022-08-21T02:04:10;21.10;99.90
19920;DHT22;10122;50.074;19.920;2022-08-21T02:06:37;21.10;99.90
19920;DHT22;10122;50.074;19.920;2022-08-21T02:09:04;21.10;99.90
19920;DHT22;10122;50.074;19.920;2022-08-21T02:11:30;21.00;99.90
19920;DHT22;10122;50.074;19.920;2022-08-21T02:13:55;21.00;99.90
19920;DHT22;10122;50.074;19.920;2022-08-21T02:16:21;21.00;99.90
19920;DHT22;10122;50.074;19.920;2022-08-21T02:18:47;21.00;99.90
19920;DHT22;10122;50.074;19.920;2022-08-21T02:21:12;20.90;99.90
19920;DHT22;10122;50.074;19.920;2022-08-21T02:23:38;20.90;99.90
19920;DHT22;10122;50.074;19.920;2022-08-21T02:26:05;20.90;99.90
19920;DHT22;10122;50.074;19.920;2022-08-21T02:28:32;20.90;99.90
19920;DHT22;10122;50.074;19.920;2022-08-21T02:30:58;20.80;99.90
19920;DHT22;10122;50.074;19.920;2022-08-21T02:33:25;20.80;99.90
19920;DHT22;10122;50.074;19.920;2022-08-21T02:35:51;20.70;99.90
19920;DHT22;10122;50.074;19.920;2022-08-21T02:38:22;20.80;99.90
19920;DHT22;10122;50.074;19.920;2022-08-21T02:40:50;20.70;99.90
19920;DHT22;10122;50.074;19.920;2022-08-21T02:43:16;20.80;99.90
19920;DHT22;10122;50.074;19.920;2022-08-21T02:45:43;20.70;99.90
19920;DHT22;10122;50.074;19.920;2022-08-21T02:48:11;20.70;99.90
19920;DHT22;10122;50.074;19.920;2022-08-21T02:50:40;20.70;99.90
19920;DHT22;10122;50.074;19.920;2022-08-21T02:53:08;20.70;99.90
19920;DHT22;10122;50.074;19.920;2022-08-21T02:55:35;20.60;99.90
19920;DHT22;10122;50.074;19.920;2022-08-21T02:58:02;20.60;99.90
19920;DHT22;10122;50.074;19.920;2022-08-21T03:00:30;20.70;99.90
19920;DHT22;10122;50.074;19.920;2022-08-21T03:02:57;20.70;99.90
19920;DHT22;10122;50.074;19.920;2022-08-21T03:05:23;20.70;99.90
19920;DHT22;10122;50.074;19.920;2022-08-21T03:07:49;20.70;99.90
19920;DHT22;10122;50.074;19.920;2022-08-21T03:10:16;20.70;99.90
19920;DHT22;10122;50.074;19.920;2022-08-21T03:12:41;20.70;99.90
19920;DHT22;10122;50.074;19.920;2022-08-21T03:15:10;20.70;99.90
19920;DHT22;10122;50.074;19.920;2022-08-21T03:17:36;20.70;99.90
19920;DHT22;10122;50.074;19.920;2022-08-21T03:20:04;20.70;99.90
19920;DHT22;10122;50.074;19.920;2022-08-21T03:22:30;20.80;99.90
19920;DHT22;10122;50.074;19.920;2022-08-21T03:24:55;20.70;99.90
19920;DHT22;10122;50.074;19.920;2022-08-21T03:27:22;20.70;99.90
19920;DHT22;10122;50.074;19.920;2022-08-21T03:29:51;20.70;99.90
19920;DHT22;10122;50.074;19.920;2022-08-21T03:32:16;20.70;99.90
19920;DHT22;10122;50.074;19.920;2022-08-21T03:34:42;20.70;99.90
19920;DHT22;10122;50.074;19.920;2022-08-21T03:37:08;20.70;99.90
19920;DHT22;10122;50.074;19.920;2022-08-21T03:39:34;20.80;99.90
19920;DHT22;10122;50.074;19.920;2022-08-21T03:42:00;20.70;99.90
19920;DHT22;10122;50.074;19.920;2022-08-21T03:44:27;20.80;99.90
19920;DHT22;10122;50.074;19.920;2022-08-21T03:46:54;20.80;99.90
19920;DHT22;10122;50.074;19.920;2022-08-21T03:49:21;20.70;99.90
19920;DHT22;10122;50.074;19.920;2022-08-21T03:51:46;20.70;99.90
19920;DHT22;10122;50.074;19.920;2022-08-21T03:54:12;20.70;99.90
19920;DHT22;10122;50.074;19.920;2022-08-21T03:56:38;20.70;99.90
19920;DHT22;10122;50.074;19.920;2022-08-21T03:59:05;20.80;99.90
19920;DHT22;10122;50.074;19.920;2022-08-21T04:01:31;20.70;99.90
19920;DHT22;10122;50.074;19.920;2022-08-21T04:03:57;20.80;99.90
19920;DHT22;10122;50.074;19.920;2022-08-21T04:06:23;20.80;99.90
19920;DHT22;10122;50.074;19.920;2022-08-21T04:08:49;20.70;99.90
19920;DHT22;10122;50.074;19.920;2022-08-21T04:11:14;20.70;99.90
19920;DHT22;10122;50.074;19.920;2022-08-21T04:13:40;20.70;99.90
19920;DHT22;10122;50.074;19.920;2022-08-21T04:16:07;20.80;99.90
19920;DHT22;10122;50.074;19.920;2022-08-21T04:18:32;20.80;99.90
19920;DHT22;10122;50.074;19.920;2022-08-21T04:20:59;20.80;99.90
19920;DHT22;10122;50.074;19.920;2022-08-21T04:23:25;20.80;99.90
19920;DHT22;10122;50.074;19.920;2022-08-21T04:25:53;20.80;99.90
19920;DHT22;10122;50.074;19.920;2022-08-21T04:28:20;20.80;99.90
19920;DHT22;10122;50.074;19.920;2022-08-21T04:30:46;20.80;99.90
19920;DHT22;10122;50.074;19.920;2022-08-21T04:33:12;20.80;99.90
19920;DHT22;10122;50.074;19.920;2022-08-21T04:35:38;20.80;99.90
19920;DHT22;10122;50.074;19.920;2022-08-21T04:38:04;20.90;99.90
19920;DHT22;10122;50.074;19.920;2022-08-21T04:40:29;20.90;99.90
19920;DHT22;10122;50.074;19.920;2022-08-21T04:43:00;20.90;99.90
19920;DHT22;10122;50.074;19.920;2022-08-21T04:45:29;21.00;99.90
19920;DHT22;10122;50.074;19.920;2022-08-21T04:47:57;20.90;99.90
19920;DHT22;10122;50.074;19.920;2022-08-21T04:50:28;21.00;99.90
19920;DHT22;10122;50.074;19.920;2022-08-21T04:52:55;21.00;99.90
19920;DHT22;10122;50.074;19.920;2022-08-21T04:55:21;21.00;99.90
19920;DHT22;10122;50.074;19.920;2022-08-21T04:57:48;21.00;99.90
19920;DHT22;10122;50.074;19.920;2022-08-21T05:00:18;21.00;99.90
19920;DHT22;10122;50.074;19.920;2022-08-21T05:02:44;21.00;99.90
19920;DHT22;10122;50.074;19.920;2022-08-21T05:05:12;21.10;99.90
19920;DHT22;10122;50.074;19.920;2022-08-21T05:07:38;21.10;99.90
19920;DHT22;10122;50.074;19.920;2022-08-21T05:10:05;21.10;99.90
19920;DHT22;10122;50.074;19.920;2022-08-21T05:12:33;21.10;99.90
19920;DHT22;10122;50.074;19.920;2022-08-21T05:14:59;21.10;99.90
19920;DHT22;10122;50.074;19.920;2022-08-21T05:17:25;21.10;99.90
19920;DHT22;10122;50.074;19.920;2022-08-21T05:19:51;21.20;99.90
19920;DHT22;10122;50.074;19.920;2022-08-21T05:22:22;21.20;99.90
19920;DHT22;10122;50.074;19.920;2022-08-21T05:24:50;21.30;99.90
19920;DHT22;10122;50.074;19.920;2022-08-21T05:27:16;21.30;99.90
19920;DHT22;10122;50.074;19.920;2022-08-21T05:29:42;21.30;99.90
19920;DHT22;10122;50.074;19.920;2022-08-21T05:32:12;21.30;99.90
19920;DHT22;10122;50.074;19.920;2022-08-21T05:34:39;21.20;99.90
19920;DHT22;10122;50.074;19.920;2022-08-21T05:37:05;21.20;99.90
19920;DHT22;10122;50.074;19.920;2022-08-21T05:39:31;21.20;99.90
19920;DHT22;10122;50.074;19.920;2022-08-21T05:41:57;21.20;99.90
19920;DHT22;10122;50.074;19.920;2022-08-21T05:44:23;21.20;99.90
19920;DHT22;10122;50.074;19.920;2022-08-21T05:46:48;21.30;99.90
19920;DHT22;10122;50.074;19.920;2022-08-21T05:49:14;21.30;99.90
19920;DHT22;10122;50.074;19.920;2022-08-21T05:51:41;21.30;99.90
19920;DHT22;10122;50.074;19.920;2022-08-21T05:54:07;21.40;99.90
19920;DHT22;10122;50.074;19.920;2022-08-21T05:56:33;21.40;99.90
19920;DHT22;10122;50.074;19.920;2022-08-21T05:58:58;21.40;99.90
19920;DHT22;10122;50.074;19.920;2022-08-21T06:01:24;21.50;99.90
19920;DHT22;10122;50.074;19.920;2022-08-21T06:03:50;21.50;99.90
19920;DHT22;10122;50.074;19.920;2022-08-21T06:06:16;21.40;99.90
19920;DHT22;10122;50.074;19.920;2022-08-21T06:08:42;21.50;99.90
19920;DHT22;10122;50.074;19.920;2022-08-21T06:11:08;21.50;99.90
19920;DHT22;10122;50.074;19.920;2022-08-21T06:13:35;21.60;99.90
19920;DHT22;10122;50.074;19.920;2022-08-21T06:16:13;21.60;99.90
19920;DHT22;10122;50.074;19.920;2022-08-21T06:18:39;21.60;99.90
19920;DHT22;10122;50.074;19.920;2022-08-21T06:21:05;21.60;99.90
19920;DHT22;10122;50.074;19.920;2022-08-21T06:23:32;21.60;99.90
19920;DHT22;10122;50.074;19.920;2022-08-21T06:25:57;21.70;99.90
19920;DHT22;10122;50.074;19.920;2022-08-21T06:28:24;21.70;99.90
19920;DHT22;10122;50.074;19.920;2022-08-21T06:30:49;21.70;99.90
19920;DHT22;10122;50.074;19.920;2022-08-21T06:33:15;21.70;99.90
19920;DHT22;10122;50.074;19.920;2022-08-21T06:35:40;21.80;99.90
19920;DHT22;10122;50.074;19.920;2022-08-21T06:38:06;21.80;99.90
19920;DHT22;10122;50.074;19.920;2022-08-21T06:40:32;21.90;99.90
19920;DHT22;10122;50.074;19.920;2022-08-21T06:42:58;21.90;99.90
19920;DHT22;10122;50.074;19.920;2022-08-21T06:45:30;21.90;99.90
19920;DHT22;10122;50.074;19.920;2022-08-21T06:47:55;21.90;99.90
19920;DHT22;10122;50.074;19.920;2022-08-21T06:50:21;21.90;99.90
19920;DHT22;10122;50.074;19.920;2022-08-21T06:52:47;21.90;99.90
19920;DHT22;10122;50.074;19.920;2022-08-21T06:55:12;21.90;99.90
19920;DHT22;10122;50.074;19.920;2022-08-21T06:57:38;22.00;99.90
19920;DHT22;10122;50.074;19.920;2022-08-21T07:00:05;22.00;99.90
19920;DHT22;10122;50.074;19.920;2022-08-21T07:02:30;22.00;99.90
19920;DHT22;10122;50.074;19.920;2022-08-21T07:04:56;22.00;99.90
19920;DHT22;10122;50.074;19.920;2022-08-21T07:07:23;22.10;99.90
19920;DHT22;10122;50.074;19.920;2022-08-21T07:09:48;22.10;99.90
19920;DHT22;10122;50.074;19.920;2022-08-21T07:12:14;22.20;99.90
19920;DHT22;10122;50.074;19.920;2022-08-21T07:14:40;22.20;99.90
19920;DHT22;10122;50.074;19.920;2022-08-21T07:17:05;22.20;99.90
19920;DHT22;10122;50.074;19.920;2022-08-21T07:19:31;22.20;99.90
19920;DHT22;10122;50.074;19.920;2022-08-21T07:21:59;22.10;99.90
19920;DHT22;10122;50.074;19.920;2022-08-21T07:24:26;22.10;99.90
19920;DHT22;10122;50.074;19.920;2022-08-21T07:26:52;22.00;99.90
19920;DHT22;10122;50.074;19.920;2022-08-21T07:29:18;22.00;99.90
19920;DHT22;10122;50.074;19.920;2022-08-21T07:31:44;22.00;99.90
19920;DHT22;10122;50.074;19.920;2022-08-21T07:34:10;22.00;99.90
19920;DHT22;10122;50.074;19.920;2022-08-21T07:36:35;22.00;99.90
19920;DHT22;10122;50.074;19.920;2022-08-21T07:39:02;22.10;99.90
19920;DHT22;10122;50.074;19.920;2022-08-21T07:41:29;22.10;99.90
19920;DHT22;10122;50.074;19.920;2022-08-21T07:43:56;22.20;99.90
19920;DHT22;10122;50.074;19.920;2022-08-21T07:46:26;22.20;99.90
19920;DHT22;10122;50.074;19.920;2022-08-21T07:48:52;22.20;99.90
19920;DHT22;10122;50.074;19.920;2022-08-21T07:51:19;22.30;99.90
19920;DHT22;10122;50.074;19.920;2022-08-21T07:53:50;22.30;99.90
19920;DHT22;10122;50.074;19.920;2022-08-21T07:56:17;22.30;99.90
19920;DHT22;10122;50.074;19.920;2022-08-21T07:58:43;22.30;99.90
19920;DHT22;10122;50.074;19.920;2022-08-21T08:01:08;22.40;99.90
19920;DHT22;10122;50.074;19.920;2022-08-21T08:03:34;22.40;99.90
19920;DHT22;10122;50.074;19.920;2022-08-21T08:06:00;22.50;99.90
19920;DHT22;10122;50.074;19.920;2022-08-21T08:08:26;22.60;99.90
19920;DHT22;10122;50.074;19.920;2022-08-21T08:10:53;22.60;99.90
19920;DHT22;10122;50.074;19.920;2022-08-21T08:13:19;22.60;99.90
19920;DHT22;10122;50.074;19.920;2022-08-21T08:15:45;22.70;99.90
19920;DHT22;10122;50.074;19.920;2022-08-21T08:18:10;22.80;99.90
19920;DHT22;10122;50.074;19.920;2022-08-21T08:20:36;22.80;99.90
19920;DHT22;10122;50.074;19.920;2022-08-21T08:23:02;23.00;99.90
19920;DHT22;10122;50.074;19.920;2022-08-21T08:25:27;23.00;99.90
19920;DHT22;10122;50.074;19.920;2022-08-21T08:27:53;23.10;99.90
19920;DHT22;10122;50.074;19.920;2022-08-21T08:30:20;23.20;99.90
19920;DHT22;10122;50.074;19.920;2022-08-21T08:32:46;23.30;99.90
19920;DHT22;10122;50.074;19.920;2022-08-21T08:35:13;23.30;99.90
19920;DHT22;10122;50.074;19.920;2022-08-21T08:37:40;23.40;99.90
19920;DHT22;10122;50.074;19.920;2022-08-21T08:40:31;23.50;99.90
19920;DHT22;10122;50.074;19.920;2022-08-21T08:42:58;23.60;99.90
19920;DHT22;10122;50.074;19.920;2022-08-21T08:45:25;23.70;99.90
19920;DHT22;10122;50.074;19.920;2022-08-21T08:48:05;23.80;99.90
19920;DHT22;10122;50.074;19.920;2022-08-21T08:50:55;23.90;99.90
19920;DHT22;10122;50.074;19.920;2022-08-21T08:53:25;24.00;99.90
19920;DHT22;10122;50.074;19.920;2022-08-21T08:55:53;24.00;99.90
19920;DHT22;10122;50.074;19.920;2022-08-21T08:58:37;24.20;99.90
19920;DHT22;10122;50.074;19.920;2022-08-21T09:01:08;24.30;99.90
19920;DHT22;10122;50.074;19.920;2022-08-21T09:03:36;24.50;99.90
19920;DHT22;10122;50.074;19.920;2022-08-21T09:08:53;24.80;99.90
19920;DHT22;10122;50.074;19.920;2022-08-21T09:11:29;24.90;99.90
19920;DHT22;10122;50.074;19.920;2022-08-21T09:14:13;25.00;99.90
19920;DHT22;10122;50.074;19.920;2022-08-21T09:25:12;25.10;99.90
19920;DHT22;10122;50.074;19.920;2022-08-21T09:27:38;25.10;99.90
19920;DHT22;10122;50.074;19.920;2022-08-21T09:30:06;25.10;99.90
19920;DHT22;10122;50.074;19.920;2022-08-21T09:32:35;25.20;99.90
19920;DHT22;10122;50.074;19.920;2022-08-21T09:35:11;25.20;99.90
19920;DHT22;10122;50.074;19.920;2022-08-21T09:43:05;25.20;99.90
19920;DHT22;10122;50.074;19.920;2022-08-21T09:45:32;25.10;99.90
19920;DHT22;10122;50.074;19.920;2022-08-21T09:50:38;25.20;99.90
19920;DHT22;10122;50.074;19.920;2022-08-21T09:53:05;25.20;99.90
19920;DHT22;10122;50.074;19.920;2022-08-21T09:55:55;25.20;99.90
19920;DHT22;10122;50.074;19.920;2022-08-21T09:58:42;25.30;99.90
19920;DHT22;10122;50.074;19.920;2022-08-21T10:01:20;25.30;99.90
19920;DHT22;10122;50.074;19.920;2022-08-21T10:03:46;25.40;99.90
19920;DHT22;10122;50.074;19.920;2022-08-21T10:06:23;25.40;99.90
19920;DHT22;10122;50.074;19.920;2022-08-21T10:08:49;25.40;99.90
19920;DHT22;10122;50.074;19.920;2022-08-21T10:11:16;25.30;99.90
19920;DHT22;10122;50.074;19.920;2022-08-21T10:17:02;25.40;99.90
19920;DHT22;10122;50.074;19.920;2022-08-21T10:19:43;25.50;99.90
19920;DHT22;10122;50.074;19.920;2022-08-21T10:25:50;25.60;99.90
19920;DHT22;10122;50.074;19.920;2022-08-21T10:28:33;25.60;99.90
19920;DHT22;10122;50.074;19.920;2022-08-21T10:34:04;25.60;99.90
19920;DHT22;10122;50.074;19.920;2022-08-21T10:36:39;25.50;99.90
19920;DHT22;10122;50.074;19.920;2022-08-21T10:39:35;25.50;99.90
19920;DHT22;10122;50.074;19.920;2022-08-21T10:45:07;25.60;99.90
19920;DHT22;10122;50.074;19.920;2022-08-21T10:47:53;25.60;99.90
19920;DHT22;10122;50.074;19.920;2022-08-21T10:50:35;25.60;99.90
19920;DHT22;10122;50.074;19.920;2022-08-21T10:56:02;25.50;99.90
19920;DHT22;10122;50.074;19.920;2022-08-21T10:58:40;25.40;99.90
19920;DHT22;10122;50.074;19.920;2022-08-21T11:01:15;25.40;99.90
19920;DHT22;10122;50.074;19.920;2022-08-21T11:03:53;25.40;99.90
19920;DHT22;10122;50.074;19.920;2022-08-21T11:06:27;25.40;99.90
19920;DHT22;10122;50.074;19.920;2022-08-21T11:08:57;25.30;99.90
19920;DHT22;10122;50.074;19.920;2022-08-21T11:11:38;25.20;99.90
19920;DHT22;10122;50.074;19.920;2022-08-21T11:16:45;24.90;99.90
19920;DHT22;10122;50.074;19.920;2022-08-21T11:22:26;24.90;99.90
19920;DHT22;10122;50.074;19.920;2022-08-21T11:25:06;25.00;99.90
19920;DHT22;10122;50.074;19.920;2022-08-21T11:27:52;25.00;99.90
19920;DHT22;10122;50.074;19.920;2022-08-21T11:30:20;25.00;99.90
19920;DHT22;10122;50.074;19.920;2022-08-21T11:38:35;25.00;99.90
19920;DHT22;10122;50.074;19.920;2022-08-21T11:41:22;25.00;99.90
19920;DHT22;10122;50.074;19.920;2022-08-21T11:46:40;24.90;99.90
19920;DHT22;10122;50.074;19.920;2022-08-21T11:57:34;24.60;99.90
19920;DHT22;10122;50.074;19.920;2022-08-21T12:00:11;24.50;99.90
19920;DHT22;10122;50.074;19.920;2022-08-21T12:02:43;24.50;99.90
19920;DHT22;10122;50.074;19.920;2022-08-21T12:05:22;24.40;99.90
19920;DHT22;10122;50.074;19.920;2022-08-21T12:07:48;24.40;99.90
19920;DHT22;10122;50.074;19.920;2022-08-21T12:10:36;24.50;99.90
19920;DHT22;10122;50.074;19.920;2022-08-21T12:13:34;24.50;99.90
19920;DHT22;10122;50.074;19.920;2022-08-21T12:16:13;24.40;99.90
19920;DHT22;10122;50.074;19.920;2022-08-21T12:18:39;24.40;99.90
19920;DHT22;10122;50.074;19.920;2022-08-21T12:21:26;24.50;99.90
19920;DHT22;10122;50.074;19.920;2022-08-21T12:24:20;24.50;99.90
19920;DHT22;10122;50.074;19.920;2022-08-21T12:29:54;24.60;99.90
19920;DHT22;10122;50.074;19.920;2022-08-21T12:32:27;24.60;99.90
19920;DHT22;10122;50.074;19.920;2022-08-21T12:35:10;24.70;99.90
19920;DHT22;10122;50.074;19.920;2022-08-21T12:37:40;24.80;99.90
19920;DHT22;10122;50.074;19.920;2022-08-21T12:40:31;24.90;99.90
19920;DHT22;10122;50.074;19.920;2022-08-21T12:43:00;25.00;99.90
19920;DHT22;10122;50.074;19.920;2022-08-21T12:45:40;25.00;99.90
19920;DHT22;10122;50.074;19.920;2022-08-21T12:50:57;25.10;99.90
19920;DHT22;10122;50.074;19.920;2022-08-21T12:56:14;25.10;99.90
19920;DHT22;10122;50.074;19.920;2022-08-21T12:58:44;25.10;99.90
19920;DHT22;10122;50.074;19.920;2022-08-21T13:01:35;25.10;99.90
19920;DHT22;10122;50.074;19.920;2022-08-21T13:04:04;25.00;99.90
19920;DHT22;10122;50.074;19.920;2022-08-21T13:06:38;24.90;99.90
19920;DHT22;10122;50.074;19.920;2022-08-21T13:09:07;24.90;99.90
19920;DHT22;10122;50.074;19.920;2022-08-21T13:11:33;24.80;99.90
19920;DHT22;10122;50.074;19.920;2022-08-21T13:14:01;24.80;99.90
19920;DHT22;10122;50.074;19.920;2022-08-21T13:16:29;24.80;99.90
19920;DHT22;10122;50.074;19.920;2022-08-21T13:19:05;24.80;99.90
19920;DHT22;10122;50.074;19.920;2022-08-21T13:21:33;24.80;99.90
19920;DHT22;10122;50.074;19.920;2022-08-21T13:24:13;24.80;99.90
19920;DHT22;10122;50.074;19.920;2022-08-21T13:26:39;24.80;99.90
19920;DHT22;10122;50.074;19.920;2022-08-21T13:29:11;24.70;99.90
19920;DHT22;10122;50.074;19.920;2022-08-21T13:31:38;24.60;99.90
19920;DHT22;10122;50.074;19.920;2022-08-21T13:34:05;24.50;99.90
19920;DHT22;10122;50.074;19.920;2022-08-21T13:36:37;24.50;99.90
19920;DHT22;10122;50.074;19.920;2022-08-21T13:39:05;24.50;99.90
19920;DHT22;10122;50.074;19.920;2022-08-21T13:41:34;24.50;99.90
19920;DHT22;10122;50.074;19.920;2022-08-21T13:44:31;24.40;99.90
19920;DHT22;10122;50.074;19.920;2022-08-21T13:46:59;24.30;99.90
19920;DHT22;10122;50.074;19.920;2022-08-21T13:49:30;24.30;99.90
19920;DHT22;10122;50.074;19.920;2022-08-21T13:51:56;24.30;99.90
19920;DHT22;10122;50.074;19.920;2022-08-21T13:54:33;24.30;99.90
19920;DHT22;10122;50.074;19.920;2022-08-21T13:56:59;24.20;99.90
19920;DHT22;10122;50.074;19.920;2022-08-21T13:59:34;24.20;99.90
19920;DHT22;10122;50.074;19.920;2022-08-21T14:02:19;24.20;99.90
19920;DHT22;10122;50.074;19.920;2022-08-21T14:07:40;24.10;99.90
19920;DHT22;10122;50.074;19.920;2022-08-21T14:10:07;24.10;99.90
19920;DHT22;10122;50.074;19.920;2022-08-21T14:12:41;24.00;99.90
19920;DHT22;10122;50.074;19.920;2022-08-21T14:15:09;24.00;99.90
19920;DHT22;10122;50.074;19.920;2022-08-21T14:17:37;23.90;99.90
19920;DHT22;10122;50.074;19.920;2022-08-21T14:20:12;23.80;99.90
19920;DHT22;10122;50.074;19.920;2022-08-21T14:22:46;23.80;99.90
19920;DHT22;10122;50.074;19.920;2022-08-21T14:25:28;23.70;99.90
19920;DHT22;10122;50.074;19.920;2022-08-21T14:28:19;23.70;99.90
19920;DHT22;10122;50.074;19.920;2022-08-21T14:30:48;23.60;99.90
19920;DHT22;10122;50.074;19.920;2022-08-21T14:33:31;23.60;99.90
19920;DHT22;10122;50.074;19.920;2022-08-21T14:35:57;23.60;99.90
19920;DHT22;10122;50.074;19.920;2022-08-21T14:38:25;23.60;99.90
19920;DHT22;10122;50.074;19.920;2022-08-21T14:40:59;23.60;99.90
19920;DHT22;10122;50.074;19.920;2022-08-21T14:43:26;23.60;99.90
19920;DHT22;10122;50.074;19.920;2022-08-21T14:45:53;23.60;99.90
19920;DHT22;10122;50.074;19.920;2022-08-21T14:48:19;23.60;99.90
19920;DHT22;10122;50.074;19.920;2022-08-21T14:50:45;23.60;99.90
19920;DHT22;10122;50.074;19.920;2022-08-21T14:53:11;23.60;99.90
19920;DHT22;10122;50.074;19.920;2022-08-21T14:55:38;23.70;99.90
19920;DHT22;10122;50.074;19.920;2022-08-21T14:58:23;23.60;99.90
19920;DHT22;10122;50.074;19.920;2022-08-21T15:00:54;23.70;99.90
19920;DHT22;10122;50.074;19.920;2022-08-21T15:03:20;23.70;99.90
19920;DHT22;10122;50.074;19.920;2022-08-21T15:05:47;23.60;99.90
19920;DHT22;10122;50.074;19.920;2022-08-21T15:08:14;23.60;99.90
19920;DHT22;10122;50.074;19.920;2022-08-21T15:10:39;23.60;99.90
19920;DHT22;10122;50.074;19.920;2022-08-21T15:13:06;23.60;99.90
19920;DHT22;10122;50.074;19.920;2022-08-21T15:15:39;23.60;99.90
19920;DHT22;10122;50.074;19.920;2022-08-21T15:18:05;23.60;99.90
19920;DHT22;10122;50.074;19.920;2022-08-21T15:20:31;23.60;99.90
19920;DHT22;10122;50.074;19.920;2022-08-21T15:22:57;23.60;99.90
19920;DHT22;10122;50.074;19.920;2022-08-21T15:25:22;23.50;99.90
19920;DHT22;10122;50.074;19.920;2022-08-21T15:27:48;23.40;99.90
19920;DHT22;10122;50.074;19.920;2022-08-21T15:30:14;23.40;99.90
19920;DHT22;10122;50.074;19.920;2022-08-21T15:32:40;23.40;99.90
19920;DHT22;10122;50.074;19.920;2022-08-21T15:35:07;23.50;99.90
19920;DHT22;10122;50.074;19.920;2022-08-21T15:37:33;23.60;99.90
19920;DHT22;10122;50.074;19.920;2022-08-21T15:39:59;23.60;99.90
19920;DHT22;10122;50.074;19.920;2022-08-21T15:42:26;23.60;99.90
19920;DHT22;10122;50.074;19.920;2022-08-21T15:44:53;23.50;99.90
19920;DHT22;10122;50.074;19.920;2022-08-21T15:47:26;23.50;99.90
19920;DHT22;10122;50.074;19.920;2022-08-21T15:50:07;23.40;99.90
19920;DHT22;10122;50.074;19.920;2022-08-21T15:52:33;23.40;99.90
19920;DHT22;10122;50.074;19.920;2022-08-21T15:54:59;23.40;99.90
19920;DHT22;10122;50.074;19.920;2022-08-21T15:57:25;23.30;99.90
19920;DHT22;10122;50.074;19.920;2022-08-21T15:59:55;23.30;99.90
19920;DHT22;10122;50.074;19.920;2022-08-21T16:02:30;23.20;99.90
19920;DHT22;10122;50.074;19.920;2022-08-21T16:04:57;23.10;99.90
19920;DHT22;10122;50.074;19.920;2022-08-21T16:07:23;23.10;99.90
19920;DHT22;10122;50.074;19.920;2022-08-21T16:09:49;23.00;99.90
19920;DHT22;10122;50.074;19.920;2022-08-21T16:12:23;23.00;99.90
19920;DHT22;10122;50.074;19.920;2022-08-21T16:14:51;23.00;99.90
19920;DHT22;10122;50.074;19.920;2022-08-21T16:17:17;22.90;99.90
19920;DHT22;10122;50.074;19.920;2022-08-21T16:19:43;22.90;99.90
19920;DHT22;10122;50.074;19.920;2022-08-21T16:22:09;22.70;99.90
19920;DHT22;10122;50.074;19.920;2022-08-21T16:24:35;22.70;99.90
19920;DHT22;10122;50.074;19.920;2022-08-21T16:27:01;22.60;99.90
19920;DHT22;10122;50.074;19.920;2022-08-21T16:29:35;22.50;99.90
19920;DHT22;10122;50.074;19.920;2022-08-21T16:32:01;22.50;99.90
19920;DHT22;10122;50.074;19.920;2022-08-21T16:34:27;22.40;99.90
19920;DHT22;10122;50.074;19.920;2022-08-21T16:36:54;22.30;99.90